Flight Track Log - Related Links

Times and Time Zones

All times are in EDT time to prevent confusion due to time zone crossing. See the EJA982 flight status page for this flight to view local times or setup timezone preferences in your user account.

Time Position Orientation Groundspeed Altitude Reporting Facility
EDT Latitude Longitude Course Direction KTS MPH feet Rate Location/Type
Sat 10:47:37 AM 39.8667 -75.2667 207° Southwest 178 205 800  Level Philadelphia TRACON
Sat 10:48:31 AM 39.8167 -75.3000 207° Southwest 223 257 3,600 3,158 Climbing Philadelphia TRACON
Sat 10:49:31 AM 39.7833 -75.2500 131° Southeast 305 351 6,800 2,200 Climbing Philadelphia TRACON
Sat 10:50:31 AM 39.8000 -75.1500 78° East 331 381 8,000 600 Climbing Philadelphia TRACON
Sat 10:51:31 AM 39.8333 -75.0333 70° East 320 368 8,000  Level Philadelphia TRACON
Sat 10:52:31 AM 39.9000 -74.9500 44° Northeast 342 394 8,000  Level Philadelphia TRACON
Sat 10:53:32 AM 39.9500 -74.8500 57° Northeast 317 365 8,000  Level Philadelphia TRACON
Sat 10:54:32 AM 40.0167 -74.7667 44° Northeast 327 376 8,000  Level Philadelphia TRACON
Sat 10:55:44 AM 40.0833 -74.6667 49° Northeast 327 376 8,000  Level New York TRACON
Sat 10:56:38 AM 40.1500 -74.5833 44° Northeast 329 379 8,000  Level New York TRACON
Sat 10:57:32 AM 40.2000 -74.5000 52° Northeast 331 381 8,000  Level New York TRACON
Sat 10:58:38 AM 40.2667 -74.4000 49° Northeast 327 376 8,000  Level New York TRACON
Sat 10:59:38 AM 40.3333 -74.3333 37° Northeast 321 369 8,000  Level New York TRACON
Sat 11:00:32 AM 40.3833 -74.2500 52° Northeast 321 369 8,000 -100 Level New York TRACON
Sat 11:01:38 AM 40.4667 -74.1667 37° Northeast 329 379 7,800 -750 Descending New York TRACON
Sat 11:02:32 AM 40.5333 -74.1000 37° Northeast 316 364 6,500 -1,474 Descending New York TRACON
Sat 11:03:32 AM 40.6167 -74.0833 North 295 339 5,000 -1,250 Descending New York TRACON
Sat 11:04:32 AM 40.6833 -74.0667 11° North 294 338 4,000 -526 Descending New York TRACON
Sat 11:05:26 AM 40.7500 -74.0333 21° North 297 342 4,000  Level New York TRACON
Sat 11:06:26 AM 40.8167 -73.9833 30° Northeast 262 302 4,000  Level New York TRACON
Sat 11:07:26 AM 40.8667 -73.9500 27° Northeast 217 250 4,000  Level New York TRACON
Sat 11:08:20 AM 40.9167 -73.9000 37° Northeast 221 254 4,000 -211 Level New York TRACON
Sat 11:09:20 AM 40.9667 -73.8500 37° Northeast 225 259 3,600 -526 Descending New York TRACON
Sat 11:10:14 AM 40.9500 -73.7833 108° East 206 237 3,000 -684 Descending New York TRACON
Sat 11:11:14 AM 40.9167 -73.7667 159° South 151 174 2,300 -500 Descending New York TRACON
Sat 11:12:14 AM 40.8833 -73.8000 217° Southwest 133 153 2,000 -350 Descending New York TRACON
Sat 11:13:14 AM 40.8500 -73.8167 201° Southwest 116 133 1,600 -526 Descending New York TRACON
Sat 11:14:08 AM 40.8167 -73.8333 201° Southwest 129 148 1,000 -684 Descending New York TRACON
Sat 11:15:08 AM 40.8000 -73.8667 237° Southwest 128 147 300 -700 Descending New York TRACON

Login

Don't have an account? Register now (free) for customized features, flight alerts, and more!